CSUN Campus Station - National Weather Service Data Page - PST Time




                Date      RH     Dew  Seasonal     Current   Max Air   Min Air    Wind    Wind    Wind    Gust     Bar    Rain
                Time       %   Point      Rain    Air Temp     Since     Since   Speed    Gust     Dir     Dir   Press   Total
                               Deg F    Inches       Deg F  Midnight  Midnight     MPH     MPH                      mb  Inches
------------------------------------------------------------------------------------------------------------------------------
    01/27/2015 00:00      87    50.1      6.69        54.0      76.1      53.7       0       1     149     143    1018    0.00
    01/27/2015 00:10      87    50.2      6.69        53.9      54.1      53.8       0       1     169     179    1018    0.00
    01/27/2015 00:20      88    50.3      6.69        53.9      54.1      53.6       0       1     162     173    1018    0.00
    01/27/2015 00:30      88    50.3      6.69        53.8      54.1      53.6       1       2     156     153    1019    0.00
    01/27/2015 00:40      88    50.4      6.69        53.9      54.1      53.6       0       2     148     147    1018    0.00
    01/27/2015 00:50      88    50.7      6.69        54.1      54.3      53.6       0       2      19      90    1018    0.00
    01/27/2015 01:00      88    50.7      6.69        54.1      54.3      53.6       0       2     295     278    1018    0.00
    01/27/2015 01:10      88    50.6      6.69        54.0      54.3      53.6       1       2     233     239    1018    0.00
    01/27/2015 01:20      88    50.4      6.69        53.8      54.3      53.6       0       1     102     103    1019    0.00
    01/27/2015 01:30      89    50.5      6.69        53.8      54.3      53.6       0       1     309     333    1019    0.00
    01/27/2015 01:40      89    50.4      6.69        53.6      54.3      53.4       0       1     301     289    1018    0.00
    01/27/2015 01:50      89    50.2      6.69        53.4      54.3      53.3       1       2     260     257    1019    0.00
    01/27/2015 02:00      89    50.3      6.69        53.5      54.3      53.3       1       2     271     261    1019    0.00
    01/27/2015 02:10      89    50.4      6.69        53.5      54.3      53.3       1       2     287     260    1018    0.00
    01/27/2015 02:20      89    50.5      6.69        53.5      54.3      53.2       0       2     234     291    1019    0.00
    01/27/2015 02:30      90    50.4      6.69        53.4      54.3      53.2       1       3     230     254    1019    0.00
    01/27/2015 02:40      90    50.7      6.69        53.7      54.3      53.2       1       2     215     203    1019    0.00
    01/27/2015 02:50      90    50.9      6.69        53.9      54.3      53.2       1       2     307     344    1019    0.00
    01/27/2015 03:00      90    50.9      6.69        53.9      54.3      53.2       1       2     247     249    1019    0.00
    01/27/2015 03:10      90    50.9      6.69        53.8      54.3      53.2       1       2     250     256    1019    0.00
    01/27/2015 03:20      90    50.9      6.69        53.8      54.3      53.2       0       1     260     260    1019    0.00
    01/27/2015 03:30      90    51.0      6.69        53.9      54.3      53.2       0       0       0     236    1019    0.00
    01/27/2015 03:40      90    51.2      6.69        54.0      54.3      53.2       0       1     301     303    1019    0.00
    01/27/2015 03:50      90    51.3      6.69        54.1      54.3      53.2       0       0     309     306    1019    0.00
    01/27/2015 04:00      90    51.3      6.69        54.1      54.4      53.2       0       1      40      58    1019    0.00
    01/27/2015 04:10      90    51.5      6.69        54.3      54.6      53.2       1       3      50      53    1019    0.00
    01/27/2015 04:20      90    51.6      6.69        54.4      54.6      53.2       0       2       2      37    1019    0.00
    01/27/2015 04:30      90    51.5      6.70        54.3      54.6      53.2       0       2     328      12    1019    0.01
    01/27/2015 04:40      90    51.6      6.70        54.4      54.6      53.2       0       2      51      12    1019    0.00
    01/27/2015 04:50      90    51.4      6.70        54.2      54.6      53.2       0       0       0      91    1019    0.00
    01/27/2015 05:00      90    51.3      6.70        54.1      54.6      53.2       0       1     170     180    1019    0.00
    01/27/2015 05:10      90    51.1      6.70        53.9      54.6      53.2       0       1     138     138    1019    0.00
    01/27/2015 05:20      90    51.2      6.70        54.0      54.6      53.2       0       1     170     162    1019    0.00
    01/27/2015 05:30      91    51.1      6.70        53.8      54.6      53.2       0       1     212     210    1019    0.00
    01/27/2015 05:40      91    50.9      6.70        53.5      54.6      53.2       0       2     196     185    1019    0.00
    01/27/2015 05:50      91    50.6      6.70        53.3      54.6      53.1       1       3     202     204    1020    0.00
    01/27/2015 06:00      91    50.6      6.70        53.3      54.6      53.0       1       2     223     198    1020    0.00
    01/27/2015 06:10      91    50.7      6.70        53.3      54.6      53.0       1       3     214     192    1020    0.00
    01/27/2015 06:20      91    50.8      6.70        53.4      54.6      53.0       0       1     269     237    1020    0.00
    01/27/2015 06:30      91    51.1      6.70        53.6      54.6      53.0       1       2     295     298    1020    0.00
    01/27/2015 06:40      91    51.1      6.70        53.6      54.6      53.0       1       2     293     284    1020    0.00
    01/27/2015 06:50      91    51.2      6.70        53.8      54.6      53.0       0       1     343       0    1021    0.00
    01/27/2015 07:00      91    51.3      6.70        53.8      54.6      53.0       0       1     255     259    1021    0.00
    01/27/2015 07:10      91    51.3      6.70        53.9      54.6      53.0       0       0       0     265    1021    0.00
    01/27/2015 07:20      91    51.4      6.70        54.0      54.6      53.0       0       0       0     301    1021    0.00
    01/27/2015 07:30      91    51.7      6.70        54.2      54.6      53.0       0       0       0     301    1021    0.00
    01/27/2015 07:40      91    52.0      6.70        54.5      54.7      53.0       0       0       0      51    1021    0.00
    01/27/2015 07:50      91    52.3      6.70        54.9      55.5      53.0       0       2      15       3    1021    0.00
    01/27/2015 08:00      91    52.9      6.70        55.4      55.8      53.0       0       1     357     353    1021    0.00
    01/27/2015 08:10      91    53.0      6.70        55.6      56.0      53.0       0       0     203     202    1021    0.00
    01/27/2015 08:20      91    53.5      6.70        56.1      56.5      53.0       1       2     184     199    1021    0.00
    01/27/2015 08:30      90    53.9      6.70        56.5      56.8      53.0       1       3     153     152    1021    0.00
    01/27/2015 08:40      90    54.1      6.70        56.9      57.4      53.0       1       2     155     162    1021    0.00
    01/27/2015 08:50      88    54.4      6.70        57.6      58.0      53.0       0       2     169     155    1021    0.00
    01/27/2015 09:00      86    54.8      6.70        58.5      59.1      53.0       1       2     195     170    1021    0.00
    01/27/2015 09:10      78    54.6      6.70        59.6      60.1      53.0       1       3      15      -0    1021    0.00
    01/27/2015 09:20      73    53.0      6.70        60.8      61.9      53.0       1       5       5       1    1021    0.00
    01/27/2015 09:30      63    52.2      6.70        62.6      63.1      53.0       1       7       6       3    1022    0.00
    01/27/2015 09:40      63    50.5      6.70        63.0      63.9      53.0       1       5       5     334    1022    0.00
    01/27/2015 09:50      63    50.3      6.70        63.8      64.2      53.0       2       5      27      52    1021    0.00
    01/27/2015 10:00      60    49.4      6.70        63.5      64.2      53.0       1       5     357      73    1021    0.00
    01/27/2015 10:10      58    49.4      6.70        64.0      64.5      53.0       2       7      53      46    1021    0.00
    01/27/2015 10:20      58    48.8      6.70        64.1      64.5      53.0       2       6       6     340    1021    0.00
    01/27/2015 10:30      57    48.5      6.70        64.6      65.0      53.0       1       3      31     134    1021    0.00
    01/27/2015 10:40      53    48.6      6.70        65.7      66.5      53.0       1       3      92      97    1021    0.00
    01/27/2015 10:50      50    46.9      6.70        65.6      66.5      53.0       2       5       9      27    1021    0.00
    01/27/2015 11:00      47    46.3      6.70        65.8      66.5      53.0       1       5      61      92    1021    0.00
    01/27/2015 11:10      45    45.7      6.70        67.0      67.8      53.0       1       4     151     160    1021    0.00
    01/27/2015 11:20      49    45.2      6.70        65.6      67.8      53.0       1       4     346     339    1021    0.00
    01/27/2015 11:30      46    45.8      6.70        66.0      67.8      53.0       1       3     234     193    1021    0.00
    01/27/2015 11:40      46    45.8      6.70        66.6      67.8      53.0       1       3     131     114    1021    0.00
    01/27/2015 11:50      46    45.2      6.70        67.2      67.8      53.0       2       6      38      23    1021    0.00
    01/27/2015 12:00      46    45.0      6.70        67.1      67.8      53.0       3       6     105      79    1020    0.00
    01/27/2015 12:10      42    44.8      6.70        67.9      68.3      53.0       3       6     188     162    1020    0.00
    01/27/2015 12:20      43    45.2      6.70        68.0      68.5      53.0       5       9     189     202    1020    0.00
    01/27/2015 12:30      45    45.6      6.70        67.6      68.5      53.0       5       9     175     199    1020    0.00
    01/27/2015 12:40      44    44.9      6.70        67.8      68.5      53.0       2       7     187     176    1020    0.00
    01/27/2015 12:50      40    44.2      6.70        68.3      69.2      53.0       2       7     129     177    1020    0.00
    01/27/2015 13:00      45    44.1      6.70        68.4      69.2      53.0       2       4      96      83    1020    0.00
    01/27/2015 13:10      41    44.0      6.70        69.5      70.4      53.0       1       5     133     140    1020    0.00
    01/27/2015 13:20      42    44.0      6.70        69.5      70.9      53.0       4      10     173     155    1020    0.00
    01/27/2015 13:30      39    45.0      6.70        69.1      70.9      53.0       3       7     155     174    1020    0.00
    01/27/2015 13:40      41    44.4      6.70        69.1      70.9      53.0       4       8     159     172    1020    0.00
    01/27/2015 13:50      39    44.7      6.70        69.4      70.9      53.0       3       7     183     192    1020    0.00
    01/27/2015 14:00      42    44.4      6.70        69.2      70.9      53.0       6      10     188     182    1020    0.00
    01/27/2015 14:10      37    44.4      6.70        69.6      70.9      53.0       3       9     188     186    1020    0.00
    01/27/2015 14:20      39    43.9      6.70        69.5      70.9      53.0       4       8     166     176    1020    0.00
    01/27/2015 14:30      41    44.1      6.70        69.0      70.9      53.0       6      13     187     149    1020    0.00
    01/27/2015 14:40      42    43.5      6.70        68.7      70.9      53.0       5       9     182     185    1020    0.00
    01/27/2015 14:50      40    43.6      6.70        68.1      70.9      53.0       4       7     183     169    1020    0.00
    01/27/2015 15:00      35    43.1      6.70        69.8      70.9      53.0       2       5     168     187    1020    0.00
    01/27/2015 15:10      39    42.4      6.70        70.1      70.9      53.0       2       7     228     247    1020    0.00
    01/27/2015 15:20      39    42.9      6.70        69.8      70.9      53.0       5       9     192     177    1020    0.00
    01/27/2015 15:30      37    42.0      6.70        68.9      70.9      53.0       6      11     185     194    1020    0.00
    01/27/2015 15:40      37    41.1      6.70        68.4      70.9      53.0       6      10     197     185    1020    0.00
    01/27/2015 15:50      36    40.9      6.70        68.2      70.9      53.0       6       9     193     193    1020    0.00
    01/27/2015 16:00      36    39.9      6.70        68.2      70.9      53.0       6      11     176     175    1020    0.00
    01/27/2015 16:10      38    40.0      6.70        67.9      70.9      53.0       4       9     186     185    1020    0.00
    01/27/2015 16:20      36    40.4      6.70        67.8      70.9      53.0       3       6     211     190    1020    0.00
    01/27/2015 16:30      40    40.2      6.70        66.6      70.9      53.0       2       5     210     160    1020    0.00
    01/27/2015 16:40      39    40.6      6.70        65.8      70.9      53.0       4       7     202     195    1020    0.00
    01/27/2015 16:50      40    40.6      6.70        65.6      70.9      53.0       4       8     196     205    1020    0.00
    01/27/2015 17:00      41    40.8      6.70        65.5      70.9      53.0       4       6     185     187    1020    0.00
    01/27/2015 17:10      43    40.7      6.70        65.1      70.9      53.0       3       6     202     191    1020    0.00
    01/27/2015 17:20      54    44.5      6.70        64.5      70.9      53.0       4       8     260     250    1019    0.00
    01/27/2015 17:30      57    47.7      6.70        63.6      70.9      53.0       2       6     266     251    1019    0.00
    01/27/2015 17:40      59    48.1      6.70        63.0      70.9      53.0       3       8     274     260    1019    0.00
    01/27/2015 17:50      59    47.9      6.70        62.4      70.9      53.0       3       7     282     248    1020    0.00
    01/27/2015 18:00      61    47.9      6.70        62.0      70.9      53.0       2       5     280     300    1020    0.00
    01/27/2015 18:10      61    48.0      6.70        61.5      70.9      53.0       2       5     283     277    1020    0.00
    01/27/2015 18:20      62    47.8      6.70        61.1      70.9      53.0       2       4     275     283    1020    0.00
    01/27/2015 18:30      62    47.5      6.70        60.8      70.9      53.0       2       7     271     252    1020    0.00
    01/27/2015 18:40      62    47.4      6.70        60.4      70.9      53.0       2       4     280     288    1020    0.00
    01/27/2015 18:50      63    47.1      6.70        59.9      70.9      53.0       2       4     275     250    1020    0.00
    01/27/2015 19:00      63    47.0      6.70        59.6      70.9      53.0       2       6     253     252    1020    0.00
    01/27/2015 19:10      64    46.9      6.70        59.3      70.9      53.0       3       5     251     253    1020    0.00
    01/27/2015 19:20      65    46.8      6.70        58.8      70.9      53.0       2       7     244     249    1021    0.00
    01/27/2015 19:30      66    46.6      6.70        58.2      70.9      53.0       1       5     244     256    1021    0.00
    01/27/2015 19:40      65    46.5      6.70        58.1      70.9      53.0       1       4     249     241    1021    0.00
    01/27/2015 19:50      66    46.2      6.70        57.8      70.9      53.0       2       5     250     261    1021    0.00
    01/27/2015 20:00      67    46.2      6.70        57.3      70.9      53.0       0       2     249     251    1021    0.00
    01/27/2015 20:10      66    46.2      6.70        56.9      70.9      53.0       0       0       0     282    1021    0.00
    01/27/2015 20:20      67    46.0      6.70        57.0      70.9      53.0       0       2     197     205    1021    0.00
    01/27/2015 20:30      67    45.9      6.70        56.4      70.9      53.0       0       2     298     353    1021    0.00
    01/27/2015 20:40      67    45.9      6.70        56.6      70.9      53.0       0       2     334     340    1020    0.00
    01/27/2015 20:50      68    45.6      6.70        56.2      70.9      53.0       0       0       0     314    1020    0.00
    01/27/2015 21:00      71    45.6      6.70        55.4      70.9      53.0       0       2     212     194    1020    0.00
    01/27/2015 21:10      72    45.8      6.70        54.7      70.9      53.0       0       2     259     260    1021    0.00
    01/27/2015 21:20      74    46.0      6.70        54.5      70.9      53.0       0       1     170     168    1021    0.00
    01/27/2015 21:30      72    46.2      6.70        54.7      70.9      53.0       0       0       0     151    1020    0.00
    01/27/2015 21:40      75    46.0      6.70        54.0      70.9      53.0       0       1     256     259    1020    0.00
    01/27/2015 21:50      75    46.3      6.70        53.9      70.9      53.0       0       2     209     188    1021    0.00
    01/27/2015 22:00      74    46.0      6.70        53.9      70.9      53.0       0       1     294     287    1021    0.00
    01/27/2015 22:10      74    45.9      6.70        54.0      70.9      53.0       0       1     330     332    1021    0.00
    01/27/2015 22:20      74    45.9      6.70        54.0      70.9      53.0       0       2     314     316    1021    0.00
    01/27/2015 22:30      74    45.9      6.70        53.9      70.9      53.0       0       1     313     271    1020    0.00
    01/27/2015 22:40      76    45.2      6.70        53.0      70.9      52.4       0       0       0     284    1020    0.00
    01/27/2015 22:50      77    45.7      6.70        52.6      70.9      52.4       0       0       0     279    1020    0.00
    01/27/2015 23:00      77    45.5      6.70        52.6      70.9      52.3       0       0       0     319    1020    0.00
    01/27/2015 23:10      77    45.8      6.70        52.6      70.9      52.3       0       0       0      58    1020    0.00
    01/27/2015 23:20      77    45.9      6.70        52.8      70.9      52.3       0       0       0       0    1020    0.00
    01/27/2015 23:30      77    45.8      6.70        52.8      70.9      52.3       0       1     343     346    1020    0.00
    01/27/2015 23:40      78    45.7      6.70        52.4      70.9      52.2       0       0       0     272    1020    0.00
    01/27/2015 23:50      79    45.9      6.70        52.4      70.9      52.1       0       0       0       4    1020    0.00
    01/28/2015 00:00      78    45.9      6.70        52.5      70.9      52.1       0       0       0      63    1020    0.00
    01/28/2015 00:10      79    45.8      6.70        52.3      52.6      52.1       0       0       0     125    1020    0.00
    01/28/2015 00:20      79    45.9      6.70        52.2      52.6      52.0       0       1     349     345    1020    0.00
    01/28/2015 00:30      78    46.0      6.70        52.4      52.7      52.0       0       0       0       1    1020    0.00
    01/28/2015 00:40      78    45.7      6.70        52.3      52.7      52.0       0       0       0     314    1020    0.00
    01/28/2015 00:50      79    45.8      6.70        52.0      52.7      51.9       0       0       0     314    1020    0.00
    01/28/2015 01:00      80    45.7      6.70        51.8      52.7      51.6       1       3     141     140    1020    0.00
    01/28/2015 01:10      80    45.5      6.70        51.5      52.7      51.3       1       3     165     164    1020    0.00
    01/28/2015 01:20      79    45.7      6.70        51.7      52.7      51.3       0       1     318     305    1020    0.00
    01/28/2015 01:30      79    45.5      6.70        51.9      52.7      51.3       1       3     288     259    1021    0.00
    01/28/2015 01:40      78    45.7      6.70        52.1      52.7      51.3       1       3     279     257    1021    0.00
    01/28/2015 01:50      78    45.6      6.70        52.1      52.7      51.3       0       2     289     282    1021    0.00
    01/28/2015 02:00      78    45.7      6.70        52.1      52.7      51.3       1       2     320     325    1021    0.00
    01/28/2015 02:10      78    45.7      6.70        52.3      52.7      51.3       1       2     341     342    1021    0.00
    01/28/2015 02:20      76    45.6      6.70        52.6      52.9      51.3       1       2     353     354    1021    0.00
    01/28/2015 02:30      75    45.4      6.70        52.8      53.0      51.3       0       2     351     352    1021    0.00
    01/28/2015 02:40      77    44.5      6.70        51.8      53.0      51.3       0       0       0     339    1021    0.00
    01/28/2015 02:50      80    44.9      6.70        51.2      53.0      51.1       0       0       0     339    1021    0.00
    01/28/2015 03:00      80    45.4      6.70        51.3      53.0      51.1       0       1      59      59    1021    0.00
    01/28/2015 03:10      79    45.5      6.70        51.6      53.0      51.1       0       1     346     346    1020    0.00
    01/28/2015 03:20      80    45.2      6.70        51.5      53.0      51.1       0       1     349     354    1020    0.00
    01/28/2015 03:30      80    44.7      6.70        50.8      53.0      50.2       0       0       0       8    1020    0.00
    01/28/2015 03:40      82    44.6      6.70        50.3      53.0      50.0       0       0       0     232    1020    0.00
    01/28/2015 03:50      82    45.0      6.70        50.3      53.0      50.0       0       0       0     233    1020    0.00
    01/28/2015 04:00      82    45.2      6.70        50.5      53.0      50.0       0       0       0     211    1020    0.00
    01/28/2015 04:10      82    45.4      6.70        50.8      53.0      50.0       0       1     308     341    1020    0.00
    01/28/2015 04:20      81    45.5      6.70        51.0      53.0      50.0       0       1     287     252    1020    0.00
    01/28/2015 04:30      81    45.5      6.70        51.2      53.0      50.0       0       1     311     307    1019    0.00
    01/28/2015 04:40      81    45.5      6.70        51.3      53.0      50.0       0       1     250     258    1019    0.00
    01/28/2015 04:50      81    45.5      6.70        51.1      53.0      50.0       0       2     259     274    1019    0.00
    01/28/2015 05:00      81    45.7      6.70        51.3      53.0      50.0       0       0       0      41    1019    0.00
    01/28/2015 05:10      81    45.8      6.70        51.5      53.0      50.0       0       1     291     276    1019    0.00
    01/28/2015 05:20      79    45.9      6.70        51.9      53.0      50.0       1       3     203     190    1019    0.00
    01/28/2015 05:30      77    45.8      6.70        52.5      53.0      50.0       1       3     165     153    1019    0.00
    01/28/2015 05:40      77    45.7      6.70        52.6      53.0      50.0       1       3     152     139    1019    0.00
    01/28/2015 05:50      75    45.8      6.70        52.9      53.6      50.0       2       4      90      33    1019    0.00
    01/28/2015 06:00      66    45.7      6.70        55.2      56.9      50.0       2       8     357     344    1019    0.00
    01/28/2015 06:10      60    45.1      6.70        58.2      58.9      50.0       5      11     348       9    1019    0.00
    01/28/2015 06:20      59    45.0      6.70        59.0      59.2      50.0       4      11     345     318    1019    0.00
    01/28/2015 06:30      59    44.8      6.70        59.1      59.5      50.0       4       9     347     337    1019    0.00
    01/28/2015 06:40      58    44.7      6.70        59.3      59.6      50.0       6      16     346     355    1019    0.00
    01/28/2015 06:50      59    44.8      6.70        59.3      59.6      50.0       6      13     345      -0    1019    0.00
    01/28/2015 07:00      59    44.7      6.70        59.1      59.6      50.0       6      15     345     338    1019    0.00
    01/28/2015 07:10      59    44.7      6.70        59.2      59.6      50.0       5      12     345      26    1019    0.00
    01/28/2015 07:20      59    44.9      6.70        59.2      59.6      50.0       5      14     345     312    1020    0.00
    01/28/2015 07:30      59    45.0      6.70        59.2      59.6      50.0       6      14     340       0    1020    0.00
    01/28/2015 07:40      59    45.1      6.70        59.4      59.6      50.0       4      13     349     350    1020    0.00
    01/28/2015 07:50      58    45.0      6.70        59.6      59.8      50.0       6      13     339     348    1020    0.00
    01/28/2015 08:00      58    45.0      6.70        59.8      60.0      50.0       5      13     340     352    1020    0.00
    01/28/2015 08:10      58    45.2      6.70        59.9      60.1      50.0       5      12     337     320    1020    0.00
    01/28/2015 08:20      58    45.4      6.70        60.1      60.4      50.0       5      11     337     328    1020    0.00
    01/28/2015 08:30      57    45.3      6.70        60.4      60.7      50.0       6      16     340     317    1020    0.00
    01/28/2015 08:40      56    45.2      6.70        60.8      61.1      50.0       6      12     340     341    1020    0.00
    01/28/2015 08:50      55    45.3      6.70        61.4      61.9      50.0       6      16     346     352    1020    0.00
    01/28/2015 09:00      53    45.3      6.70        62.1      62.5      50.0       7      14     348     337    1020    0.00
    01/28/2015 09:10      52    45.1      6.70        62.7      63.2      50.0       6      15     345     353    1020    0.00
    01/28/2015 09:20      51    45.0      6.70        63.4      63.8      50.0       5      12     343     317    1020    0.00
    01/28/2015 09:30      50    45.1      6.70        64.1      64.4      50.0       5      12     344     334    1020    0.00
    01/28/2015 09:40      48    44.9      6.70        64.4      64.7      50.0       6      16     342     336    1020    0.00
    01/28/2015 09:50      48    44.9      6.70        64.6      65.0      50.0       5      12     338     343    1020    0.00
    01/28/2015 10:00      47    45.0      6.70        64.9      65.2      50.0       5      12     338     340    1020    0.00
    01/28/2015 10:10      48    44.8      6.70        65.1      65.3      50.0       5      12     342     352    1020    0.00
    01/28/2015 10:20      47    44.7      6.70        65.3      65.8      50.0       7      15     335     344    1020    0.00
    01/28/2015 10:30      47    45.0      6.70        66.3      66.9      50.0       6      14     340     328    1020    0.00
    01/28/2015 10:40      45    45.1      6.70        67.1      67.4      50.0       7      18     334     335    1020    0.00
    01/28/2015 10:50      44    45.0      6.70        67.4      67.8      50.0       5      12     342      31    1019    0.00
    01/28/2015 11:00      42    44.4      6.70        67.7      68.0      50.0       7      20     337     322    1019    0.00
    01/28/2015 11:10      42    44.0      6.70        68.0      68.6      50.0       7      14     340     320    1019    0.00
    01/28/2015 11:20      40    44.1      6.70        68.7      69.0      50.0       6      16     338       5    1019    0.00
    01/28/2015 11:30      38    43.4      6.70        69.0      69.4      50.0       7      16     339     334    1019    0.00
    01/28/2015 11:40      39    42.8      6.70        69.5      69.7      50.0       7      19     335     325    1019    0.00
    01/28/2015 11:50      38    43.0      6.70        69.3      69.7      50.0       8      17     340     352    1018    0.00
    01/28/2015 12:00      36    43.0      6.70        69.9      70.3      50.0       5      13     341       2    1018    0.00
    01/28/2015 12:10      38    43.0      6.70        70.0      70.3      50.0       6      15     341       1    1018    0.00
    01/28/2015 12:20      38    43.1      6.70        70.1      70.3      50.0       5      16     332     325    1018    0.00
    01/28/2015 12:30      38    42.9      6.70        70.2      70.4      50.0       4      15     333     351    1018    0.00
    01/28/2015 12:40      38    43.2      6.70        70.2      70.6      50.0       4      11     325     322    1018    0.00
    01/28/2015 12:50      39    43.2      6.70        69.9      70.6      50.0       6      11     325     337    1018    0.00
    01/28/2015 13:00      37    43.4      6.70        69.8      70.6      50.0       4      13     327     330    1018    0.00
    01/28/2015 13:10      39    43.2      6.70        69.6      70.6      50.0       5      12     326     294    1018    0.00
    01/28/2015 13:20      40    43.4      6.70        69.2      70.6      50.0       6      13     328     325    1018    0.00
    01/28/2015 13:30      41    43.9      6.70        68.7      70.6      50.0       5      12     325     323    1018    0.00
    01/28/2015 13:40      41    44.0      6.70        68.7      70.6      50.0       6      12     335     329    1017    0.00
    01/28/2015 13:50      41    44.2      6.70        68.9      70.6      50.0       4      11     331     337    1017    0.00
    01/28/2015 14:00      42    44.5      6.70        69.1      70.6      50.0       5      15     334     339    1017    0.00
    01/28/2015 14:10      41    44.8      6.70        69.0      70.6      50.0       5      12     334       9    1017    0.00
    01/28/2015 14:20      42    44.9      6.70        69.1      70.6      50.0       4      10     330     351    1017    0.00
    01/28/2015 14:30      43    44.9      6.70        68.6      70.6      50.0       5      12     333     335    1017    0.00
    01/28/2015 14:40      44    45.0      6.70        68.4      70.6      50.0       4      10     332     342    1018    0.00
    01/28/2015 14:50      43    45.2      6.70        68.6      70.6      50.0       4       9     333     347    1018    0.00
    01/28/2015 15:00      43    45.1      6.70        68.4      70.6      50.0       4      10     320     341    1018    0.00
    01/28/2015 15:10      43    45.0      6.70        68.3      70.6      50.0       4      11     332     309    1018    0.00
    01/28/2015 15:20      44    45.1      6.70        68.1      70.6      50.0       5      12     340     348    1018    0.00
    01/28/2015 15:30      44    45.1      6.70        68.0      70.6      50.0       6      13     330     337    1018    0.00
    01/28/2015 15:40      45    45.3      6.70        67.9      70.6      50.0       4      10     336     334    1018    0.00
    01/28/2015 15:50      45    45.4      6.70        67.7      70.6      50.0       4      12     339     324    1017    0.00
    01/28/2015 16:00      46    45.5      6.70        67.7      70.6      50.0       4      12     342       1    1017    0.00
    01/28/2015 16:10      44    45.5      6.70        67.6      70.6      50.0       4       9     345       3    1017    0.00
    01/28/2015 16:20      45    45.4      6.70        67.5      70.6      50.0       4       9     341     349    1017    0.00
    01/28/2015 16:30      44    45.1      6.70        67.4      70.6      50.0       4      10     344     325    1017    0.00
    01/28/2015 16:40      43    44.5      6.70        67.3      70.6      50.0       4       9     347     346    1017    0.00
    01/28/2015 16:50      42    43.8      6.70        67.3      70.6      50.0       5      11     348     343    1017    0.00
    01/28/2015 17:00      41    43.1      6.70        67.2      70.6      50.0       4       9     349     350    1017    0.00
    01/28/2015 17:10      41    42.5      6.70        67.1      70.6      50.0       4      10     350       9    1017    0.00
    01/28/2015 17:20      40    42.0      6.70        67.0      70.6      50.0       4       9     346       6    1017    0.00
    01/28/2015 17:30      40    41.7      6.70        66.9      70.6      50.0       4       8     348     351    1017    0.00
    01/28/2015 17:40      40    41.6      6.70        66.7      70.6      50.0       3       7     346     323    1017    0.00
    01/28/2015 17:50      40    41.5      6.70        66.5      70.6      50.0       4       9     341       5    1017    0.00
    01/28/2015 18:00      40    41.4      6.70        66.4      70.6      50.0       4      10     345      -0    1018    0.00
    01/28/2015 18:10      39    41.1      6.70        66.3      70.6      50.0       4      10     348     348    1018    0.00
    01/28/2015 18:20      40    41.1      6.70        66.3      70.6      50.0       3       9     341     337    1018    0.00
    01/28/2015 18:30      39    41.0      6.70        66.2      70.6      50.0       3       8     345     349    1018    0.00
    01/28/2015 18:40      39    40.7      6.70        66.3      70.6      50.0       4      11     349       0    1018    0.00
    01/28/2015 18:50      39    40.6      6.70        66.3      70.6      50.0       4       9     349      21    1018    0.00
    01/28/2015 19:00      39    40.6      6.70        66.1      70.6      50.0       4       8     348     346    1018    0.00
    01/28/2015 19:10      39    40.1      6.70        66.2      70.6      50.0       6      12     354     340    1018    0.00
    01/28/2015 19:20      38    40.0      6.70        66.1      70.6      50.0       4       9     350     349    1018    0.00
    01/28/2015 19:30      37    39.7      6.70        66.1      70.6      50.0       4       7       0       3    1018    0.00
    01/28/2015 19:40      37    39.5      6.70        66.0      70.6      50.0       2       8     354     336    1018    0.00
    01/28/2015 19:50      38    39.4      6.70        66.0      70.6      50.0       3       7     345     346    1018    0.00
    01/28/2015 20:00      38    39.5      6.70        65.8      70.6      50.0       3       8     346     340    1018    0.00
    01/28/2015 20:10      37    38.7      6.70        65.7      70.6      50.0       4       9     350     349    1018    0.00
    01/28/2015 20:20      36    38.6      6.70        65.8      70.6      50.0       4       8     350      21    1018    0.00
    01/28/2015 20:30      38    38.7      6.70        65.6      70.6      50.0       3       7     350     347    1018    0.00
    01/28/2015 20:40      37    38.6      6.70        65.5      70.6      50.0       3       7     351     345    1018    0.00
    01/28/2015 20:50      37    38.9      6.70        65.5      70.6      50.0       4       8     345     326    1018    0.00
    01/28/2015 21:00      39    39.2      6.70        65.6      70.6      50.0       4       9     348     334    1018    0.00
    01/28/2015 21:10      38    39.5      6.70        65.6      70.6      50.0       4      13     341     321    1018    0.00
    01/28/2015 21:20      38    39.3      6.70        65.7      70.6      50.0       5      10     345     344    1018    0.00
    01/28/2015 21:30      38    39.5      6.70        65.7      70.6      50.0       6      12     344     336    1018    0.00
    01/28/2015 21:40      39    39.9      6.70        65.6      70.6      50.0       5      11     339     337    1018    0.00
    01/28/2015 21:50      39    40.1      6.70        65.6      70.6      50.0       6      14     341     340    1018    0.00
    01/28/2015 22:00      40    40.3      6.70        65.6      70.6      50.0       6      13     344     353    1018    0.00
    01/28/2015 22:10      40    40.4      6.70        65.4      70.6      50.0       6      16     346     352    1018    0.00
    01/28/2015 22:20      40    40.5      6.70        65.3      70.6      50.0       6      12     342     323    1018    0.00
    01/28/2015 22:30      41    40.6      6.70        65.1      70.6      50.0       5      11     345     346    1018    0.00
    01/28/2015 22:40      41    40.5      6.70        65.0      70.6      50.0       5      10     344     341    1018    0.00
    01/28/2015 22:50      40    40.2      6.70        64.9      70.6      50.0       5       9     345     348    1018    0.00
    01/28/2015 23:00      39    39.6      6.70        65.2      70.6      50.0       6      14     349     339    1018    0.00
    01/28/2015 23:10      38    39.4      6.70        65.4      70.6      50.0       6      15     348     353    1018    0.00
    01/28/2015 23:20      36    38.8      6.70        65.6      70.6      50.0       5      11     343     343    1017    0.00
    01/28/2015 23:30      39    38.8      6.70        65.5      70.6      50.0       4      14     332     351    1017    0.00
    01/28/2015 23:40      40    39.7      6.70        65.1      70.6      50.0       4       9     333       0    1017    0.00
    01/28/2015 23:50      37    39.2      6.70        65.1      70.6      50.0       4      13     342     348    1017    0.00
    01/29/2015 00:00      36    37.9      6.70        65.6      70.6      50.0       7      18     343     293    1017    0.00
    01/29/2015 00:10      36    37.8      6.70        65.7      65.9      65.5       6      13     347       6    1017    0.00
    01/29/2015 00:20      35    37.6      6.70        65.7      66.0      65.5       6      12     352     114    1017    0.00
    01/29/2015 00:30      34    37.3      6.70        65.9      66.2      65.5       7      15     347     330    1017    0.00
    01/29/2015 00:40      34    37.0      6.70        66.1      66.4      65.5       5      15     351     345    1017    0.00
    01/29/2015 00:50      36    37.1      6.70        65.8      66.4      65.5       4      14     344     343    1017    0.00
    01/29/2015 01:00      36    37.8      6.70        65.4      66.4      65.2       5      16     342     344    1017    0.00
    01/29/2015 01:10      36    37.9      6.70        65.4      66.4      65.2       6      15     346       1    1017    0.00
    01/29/2015 01:20      36    37.9      6.70        65.4      66.4      65.2       6      13     344     338    1017    0.00
    01/29/2015 01:30      36    37.9      6.70        65.3      66.4      65.2       6      18     343     351    1017    0.00
    01/29/2015 01:40      37    37.9      6.70        65.2      66.4      65.0       5      12     344     313    1017    0.00
    01/29/2015 01:50      37    38.1      6.70        65.1      66.4      64.8       7      14     344     355    1017    0.00
    01/29/2015 02:00      37    38.1      6.70        65.2      66.4      64.8       8      14     349       3    1017    0.00
    01/29/2015 02:10      37    38.2      6.70        65.1      66.4      64.8       6      14     351      20    1017    0.00
    01/29/2015 02:20      37    38.1      6.70        65.0      66.4      64.8       6      14     338     344    1017    0.00
    01/29/2015 02:30      37    38.1      6.70        64.9      66.4      64.7       5      13     344     352    1017    0.00
    01/29/2015 02:40      37    37.8      6.70        64.9      66.4      64.7       5      13     344     355    1017    0.00
    01/29/2015 02:50      37    37.7      6.70        64.9      66.4      64.7       5      13     345     329    1017    0.00
    01/29/2015 03:00      36    37.6      6.70        64.9      66.4      64.7       7      13     355     354    1017    0.00
    01/29/2015 03:10      37    37.7      6.70        64.8      66.4      64.6       5      15     350     352    1017    0.00
    01/29/2015 03:20      37    37.8      6.70        64.7      66.4      64.5       5      12     351     334    1016    0.00
    01/29/2015 03:30      38    38.4      6.70        64.5      66.4      64.4       6      13     353     343    1016    0.00
    01/29/2015 03:40      38    38.4      6.70        64.4      66.4      64.2       5      11     351      15    1016    0.00
    01/29/2015 03:50      37    38.1      6.70        64.4      66.4      64.2       6      12     349     336    1016    0.00
    01/29/2015 04:00      38    37.5      6.70        64.6      66.4      64.2       5      12     343     351    1016    0.00
    01/29/2015 04:10      38    38.3      6.70        64.5      66.4      64.2       6      16     347     334    1016    0.00
    01/29/2015 04:20      39    38.5      6.70        64.4      66.4      64.1       6      12     347     334    1016    0.00
    01/29/2015 04:30      38    38.5      6.70        64.3      66.4      64.1       7      13     344     338    1016    0.00
    01/29/2015 04:40      37    38.3      6.70        64.4      66.4      64.1       7      15     349      -0    1016    0.00
    01/29/2015 04:50      37    37.8      6.70        64.6      66.4      64.1       8      17     347     346    1016    0.00
    01/29/2015 05:00      36    37.6      6.70        64.7      66.4      64.1       6      18     350     351    1016    0.00
    01/29/2015 05:10      35    37.2      6.70        64.9      66.4      64.1       8      18     353     340    1016    0.00
    01/29/2015 05:20      36    37.3      6.70        64.9      66.4      64.1       8      18     349      32    1016    0.00
    01/29/2015 05:30      36    37.3      6.70        64.7      66.4      64.1       4       9     353      10    1016    0.00
    01/29/2015 05:40      35    37.0      6.70        64.9      66.4      64.1       7      14     348     345    1016    0.00
    01/29/2015 05:50      35    36.9      6.70        65.2      66.4      64.1       8      19     348     345    1016    0.00
    01/29/2015 06:00      35    36.9      6.70        65.2      66.4      64.1       5      14     351     323    1016    0.00
    01/29/2015 06:10      35    37.0      6.70        65.3      66.4      64.1       5      13     352     348    1016    0.00
    01/29/2015 06:20      35    37.0      6.70        65.4      66.4      64.1       6      15     350      14    1016    0.00
    01/29/2015 06:30      35    36.8      6.70        65.5      66.4      64.1       7      14     355       5    1016    0.00
    01/29/2015 06:40      35    37.0      6.70        65.5      66.4      64.1       7      14     351       5    1016    0.00
    01/29/2015 06:50      35    37.0      6.70        65.4      66.4      64.1       7      17     348     352    1016    0.00
    01/29/2015 07:00      34    36.7      6.70        65.5      66.4      64.1       8      22     346     352    1016    0.00
    01/29/2015 07:10      34    36.7      6.70        65.6      66.4      64.1       8      18     352     336    1016    0.00
    01/29/2015 07:20      34    36.5      6.70        65.5      66.4      64.1       8      18     350     342    1016    0.00
    01/29/2015 07:30      33    36.2      6.70        65.9      66.4      64.1       8      15     353       8    1016    0.00
    01/29/2015 07:40      33    36.1      6.70        66.1      66.4      64.1       6      16     351      18    1016    0.00
    01/29/2015 07:50      32    35.9      6.70        66.4      66.7      64.1       7      16     355     335    1016    0.00
    01/29/2015 08:00      32    35.9      6.70        66.7      66.9      64.1       8      17     350     345    1016    0.00
    01/29/2015 08:10      33    36.2      6.70        66.6      66.9      64.1       6      13     345     337    1016    0.00
    01/29/2015 08:20      33    36.4      6.70        66.5      66.9      64.1       7      16     350       5    1016    0.00
    01/29/2015 08:30      33    36.4      6.70        66.5      66.9      64.1       9      19     351     337    1016    0.00
    01/29/2015 08:40      32    36.4      6.70        66.6      66.9      64.1       8      17     352     347    1017    0.00
    01/29/2015 08:50      32    36.5      6.70        66.8      67.0      64.1       7      16     346     354    1017    0.00
    01/29/2015 09:00      32    36.6      6.70        66.8      67.0      64.1       8      14     349     313    1017    0.00
    01/29/2015 09:10      33    36.7      6.70        67.0      67.2      64.1       7      17     347     319    1017    0.00
    01/29/2015 09:20      33    36.8      6.70        67.2      67.4      64.1       7      15     349     335    1017    0.00
    01/29/2015 09:30      32    36.8      6.70        67.4      67.7      64.1       7      17     342     318    1017    0.00
    01/29/2015 09:40      32    37.0      6.70        67.5      67.7      64.1       6      15     348       1    1017    0.00
    01/29/2015 09:50      32    37.0      6.70        67.7      67.9      64.1       8      18     349     341    1017    0.00
    01/29/2015 10:00      32    37.3      6.70        67.9      68.2      64.1       6      16     344     341    1017    0.00
    01/29/2015 10:10      32    37.4      6.70        68.2      68.4      64.1       6      14     343       5    1017    0.00
    01/29/2015 10:20      32    37.5      6.70        68.4      68.6      64.1       6      15     338     351    1017    0.00
    01/29/2015 10:30      32    37.5      6.70        68.5      68.8      64.1       6      14     342     325    1017    0.00
    01/29/2015 10:40      31    37.6      6.70        68.8      69.0      64.1       6      14     346     319    1017    0.00
    01/29/2015 10:50      32    37.5      6.70        68.9      69.0      64.1       7      15     342     330    1017    0.00
    01/29/2015 11:00      31    37.5      6.70        69.1      69.4      64.1       7      14     345     313    1017    0.00
    01/29/2015 11:10      31    37.6      6.70        69.3      69.5      64.1       7      16     344     340    1017    0.00
    01/29/2015 11:20      31    37.5      6.70        69.5      69.8      64.1       6      16     348     345    1017    0.00
    01/29/2015 11:30      32    37.7      6.70        69.6      69.8      64.1       6      12     341     354    1016    0.00
    01/29/2015 11:40      30    38.0      6.70        69.8      70.0      64.1       6      13     339     327    1016    0.00
    01/29/2015 11:50      30    37.8      6.70        70.1      70.3      64.1       6      12     332       1    1016    0.00
    01/29/2015 12:00      31    37.9      6.70        70.3      70.5      64.1       4      11     327     334    1016    0.00
    01/29/2015 12:10      30    38.3      6.70        70.6      70.9      64.1       4      11     337       1    1016    0.00
    01/29/2015 12:20      30    37.9      6.70        70.8      71.0      64.1       5      12     328     316    1016    0.00
    01/29/2015 12:30      30    38.1      6.70        71.1      71.3      64.1       5      11     333       0    1016    0.00
    01/29/2015 12:40      30    37.9      6.70        71.2      71.4      64.1       4      11     331       0    1015    0.00
    01/29/2015 12:50      29    38.0      6.70        71.5      71.7      64.1       4      12     328     336    1015    0.00
    01/29/2015 13:00      30    38.3      6.70        71.8      72.2      64.1       3       9     327     313    1015    0.00
    01/29/2015 13:10      29    38.6      6.70        72.3      72.8      64.1       3       7     323     352    1015    0.00
    01/29/2015 13:20      28    38.6      6.70        73.0      73.2      64.1       3      10     321     146    1015    0.00
    01/29/2015 13:30      27    38.4      6.70        73.3      73.5      64.1       3       7     329     330    1014    0.00
    01/29/2015 13:40      29    38.3      6.70        73.3      73.6      64.1       3       9     316     333    1014    0.00
    01/29/2015 13:50      28    38.5      6.70        73.5      73.8      64.1       2       6     321       0    1014    0.00
    01/29/2015 14:00      28    38.2      6.70        73.1      73.8      64.1       3      11     312     330    1014    0.00
    01/29/2015 14:10      28    38.0      6.70        72.8      73.8      64.1       3       6     325     336    1014    0.00
    01/29/2015 14:20      28    37.9      6.70        72.7      73.8      64.1       2       6     342      18    1014    0.00
    01/29/2015 14:30      28    38.1      6.70        72.7      73.8      64.1       2       7     329     333    1014    0.00
    01/29/2015 14:40      28    37.1      6.70        72.4      73.8      64.1       2       8     341     340    1014    0.00
    01/29/2015 14:50      29    37.9      6.70        72.4      73.8      64.1       3       7     337     341    1014    0.00
    01/29/2015 15:00      29    38.7      6.70        72.3      73.8      64.1       2       5     343     325    1014    0.00
    01/29/2015 15:10      29    38.7      6.70        72.3      73.8      64.1       1       4     338     308    1014    0.00
    01/29/2015 15:20      26    36.8      6.70        72.4      73.8      64.1       2       4     128     169    1014    0.00
    01/29/2015 15:30      28    37.1      6.70        72.1      73.8      64.1       3       6     137     171    1014    0.00
    01/29/2015 15:40      29    37.2      6.70        71.8      73.8      64.1       3       5     138     136    1014    0.00
    01/29/2015 15:50      28    37.1      6.70        71.4      73.8      64.1       3       7     140     137    1014    0.00
    01/29/2015 16:00      26    36.0      6.70        71.4      73.8      64.1       2       6     103      80    1014    0.00
    01/29/2015 16:10      28    36.2      6.70        71.3      73.8      64.1       2       4     135     138    1014    0.00
    01/29/2015 16:20      30    36.4      6.70        70.8      73.8      64.1       3       6     145     157    1014    0.00
    01/29/2015 16:30      32    38.1      6.70        70.2      73.8      64.1       2       4     147     157    1014    0.00
    01/29/2015 16:40      34    39.5      6.70        69.7      73.8      64.1       2       5     140     114    1014    0.00
    01/29/2015 16:50      34    39.9      6.70        69.2      73.8      64.1       2       5     148     146    1014    0.00
    01/29/2015 17:00      34    39.5      6.70        68.7      73.8      64.1       1       3     143     149    1014    0.00
    01/29/2015 17:10      34    39.3      6.70        68.3      73.8      64.1       0       2     132     132    1014    0.00
    01/29/2015 17:20      36    39.5      6.70        68.1      73.8      64.1       0       2     142     140    1014    0.00
    01/29/2015 17:30      37    40.5      6.70        67.5      73.8      64.1       0       1     132     140    1015    0.00
    01/29/2015 17:40      40    40.6      6.70        66.7      73.8      64.1       0       1     142     150    1015    0.00
    01/29/2015 17:50      41    41.5      6.70        66.1      73.8      64.1       0       0       0     151    1015    0.00
    01/29/2015 18:00      39    41.3      6.70        65.7      73.8      64.1       0       1     131     130    1015    0.00
    01/29/2015 18:10      39    40.4      6.70        65.9      73.8      64.1       0       0       0     127    1015    0.00
    01/29/2015 18:20      37    40.2      6.70        66.1      73.8      64.1       1       2      79      94    1015    0.00
    01/29/2015 18:30      39    40.0      6.70        66.2      73.8      64.1       1       2      86      88    1015    0.00
    01/29/2015 18:40      38    39.8      6.70        66.1      73.8      64.1       1       2      81      94    1015    0.00
    01/29/2015 18:50      38    39.8      6.70        66.1      73.8      64.1       2       3      80      99    1015    0.00
    01/29/2015 19:00      38    39.7      6.70        65.9      73.8      64.1       2       4      75      46    1015    0.00
    01/29/2015 19:10      36    39.0      6.70        65.8      73.8      64.1       2       4      70      85    1015    0.00
    01/29/2015 19:20      36    38.0      6.70        65.6      73.8      64.1       2       4      73      32    1015    0.00
    01/29/2015 19:30      36    37.5      6.70        65.4      73.8      64.1       2       4      74      99    1016    0.00
    01/29/2015 19:40      37    37.6      6.70        65.2      73.8      64.1       1       3      69      83    1016    0.00
    01/29/2015 19:50      37    38.0      6.70        65.0      73.8      64.1       1       4      80      75    1016    0.00
    01/29/2015 20:00      37    38.1      6.70        64.9      73.8      64.1       2       4      74      96    1016    0.00
    01/29/2015 20:10      39    38.6      6.70        64.7      73.8      64.1       0       2      90      97    1016    0.00
    01/29/2015 20:20      39    38.9      6.70        64.2      73.8      64.0       0       2      69      54    1016    0.00
    01/29/2015 20:30      39    38.9      6.70        64.2      73.8      64.0       1       3      65      70    1016    0.00
    01/29/2015 20:40      40    39.1      6.70        64.1      73.8      63.7       1       4      76      99    1016    0.00
    01/29/2015 20:50      41    39.4      6.70        63.7      73.8      63.5       1       4      90      52    1016    0.00
    01/29/2015 21:00      41    39.4      6.70        63.6      73.8      63.5       1       3      88      90    1016    0.00
    01/29/2015 21:10      43    39.6      6.70        63.3      73.8      62.8       0       2      92      90    1016    0.00
    01/29/2015 21:20      43    39.9      6.70        62.9      73.8      62.8       0       1      79      90    1016    0.00
    01/29/2015 21:30      45    40.9      6.70        62.5      73.8      61.9       0       1     175     179    1016    0.00
    01/29/2015 21:40      45    40.5      6.70        62.2      73.8      61.8       1       2      17       1    1016    0.00
    01/29/2015 21:50      45    41.3      6.70        62.8      73.8      61.8       1       2      14      23    1016    0.00
    01/29/2015 22:00      51    42.6      6.70        62.6      73.8      61.8       0       2      21     334    1016    0.00
    01/29/2015 22:10      50    44.0      6.70        61.7      73.8      61.3       1       5      13      52    1016    0.00
    01/29/2015 22:20      54    43.4      6.70        62.2      73.8      61.3       1       4     346      62    1016    0.00
    01/29/2015 22:30      53    44.0      6.70        61.3      73.8      61.1       0       1     274     284    1016    0.00
    01/29/2015 22:40      53    43.8      6.70        61.3      73.8      61.0       0       0       0     271    1016    0.00
    01/29/2015 22:50      52    44.0      6.70        61.5      73.8      61.0       0       2     337     338    1016    0.00
    01/29/2015 23:00      50    43.7      6.70        61.7      73.8      61.0       1       2       9      19    1016    0.00
    01/29/2015 23:10      52    43.5      6.70        62.2      73.8      61.0       1       2      41      71    1016    0.00
    01/29/2015 23:20      54    44.5      6.70        61.8      73.8      61.0       1       2     352       1    1016    0.00
    01/29/2015 23:30      52    44.6      6.70        61.5      73.8      61.0       2       4     351     355    1016    0.00
    01/29/2015 23:40      54    44.5      6.70        61.7      73.8      61.0       1       3     340     342    1016    0.00
    01/29/2015 23:50      49    44.0      6.70        61.6      73.8      61.0       2       4     335     336    1016    0.00
    01/30/2015 00:00      52    43.1      6.70        62.0      73.8      61.0       0       3     313     329    1015    0.00
    01/30/2015 00:10      49    43.3      6.70        61.6      61.9      61.3       1       2     303     303    1015    0.00
    01/30/2015 00:20      51    43.1      6.70        61.8      62.0      61.3       0       1     326     338    1015    0.00
    01/30/2015 00:30      53    43.4      6.70        61.4      62.0      61.0       0       1     338     334    1015    0.00
    01/30/2015 00:40      51    43.0      6.70        61.1      62.0      60.9       0       1     235     240    1015    0.00
    01/30/2015 00:50      52    43.4      6.70        60.8      62.0      60.5       0       1     192     195    1015    0.00
    01/30/2015 01:00      54    43.3      6.70        60.9      62.0      60.5       0       2     130     130    1015    0.00
    01/30/2015 01:10      58    45.1      6.70        60.8      62.0      60.4       1       4     150     142    1015    0.00
    01/30/2015 01:20      58    45.3      6.70        60.2      62.0      59.9       0       2     169     144    1015    0.00
    01/30/2015 01:30      60    45.6      6.70        59.8      62.0      59.5       1       4     291     292    1015    0.00
    01/30/2015 01:40      52    44.5      6.70        59.9      62.0      59.5       1       4     282     297    1015    0.00
    01/30/2015 01:50      52    43.1      6.70        60.9      62.0      59.5       1       3     285     296    1015    0.00
    01/30/2015 02:00      50    42.7      6.70        61.1      62.0      59.5       0       3     331     337    1014    0.00
    01/30/2015 02:10      50    42.6      6.70        61.1      62.0      59.5       1       5     339     352    1014    0.00
    01/30/2015 02:20      49    42.2      6.70        61.5      62.0      59.5       1       4     334     325    1014    0.00
    01/30/2015 02:30      48    42.2      6.70        61.8      62.0      59.5       2       5     335     340    1014    0.00
    01/30/2015 02:40      49    42.5      6.70        61.7      62.0      59.5       2       7     307     326    1014    0.00
    01/30/2015 02:50      49    42.3      6.70        61.7      62.0      59.5       2       8     355      -0    1014    0.00
    01/30/2015 03:00      50    42.7      6.70        61.5      62.0      59.5       3       8     349     309    1014    0.00
    01/30/2015 03:10      52    43.2      6.70        61.2      62.0      59.5       2       5     329     350    1014    0.00
    01/30/2015 03:20      54    43.6      6.70        60.8      62.0      59.5       2       5     307     321    1014    0.00
    01/30/2015 03:30      55    44.0      6.70        60.5      62.0      59.5       2       7     307     337    1014    0.00
    01/30/2015 03:40      54    44.0      6.70        60.6      62.0      59.5       3       8     333      58    1013    0.00
    01/30/2015 03:50      55    44.1      6.70        60.8      62.0      59.5       4      11     348      59    1013    0.00
    01/30/2015 04:00      55    44.3      6.70        60.8      62.0      59.5       7      15     351       2    1013    0.00
    01/30/2015 04:10      57    44.8      6.70        60.6      62.0      59.5       7      15     355      12    1013    0.00
    01/30/2015 04:20      59    45.3      6.70        60.3      62.0      59.5       7      15     359      13    1013    0.00
    01/30/2015 04:30      58    45.4      6.70        60.1      62.0      59.5       9      15     355      17    1013    0.00
    01/30/2015 04:40      57    45.3      6.70        60.0      62.0      59.5       8      16       1     342    1013    0.00
    01/30/2015 04:50      57    45.1      6.70        60.1      62.0      59.5       7      15      11     345    1013    0.00
    01/30/2015 05:00      57    45.0      6.70        60.1      62.0      59.5       6      14       8       3    1013    0.00
    01/30/2015 05:10      57    44.9      6.70        60.0      62.0      59.5       6      14       3      12    1013    0.00
    01/30/2015 05:20      56    44.6      6.70        60.1      62.0      59.5       6      11       3     339    1013    0.00
    01/30/2015 05:30      55    44.3      6.70        60.3      62.0      59.5       6      12     352     352    1012    0.00
    01/30/2015 05:40      54    43.9      6.70        60.5      62.0      59.5       6      14     357     351    1012    0.00
    01/30/2015 05:50      53    43.7      6.70        60.7      62.0      59.5       6      15       3     353    1012    0.00
    01/30/2015 06:00      53    43.5      6.70        61.0      62.0      59.5       7      15     358     341    1013    0.00
    01/30/2015 06:10      53    43.7      6.70        60.8      62.0      59.5       7      15       6      15    1013    0.00
    01/30/2015 06:20      54    43.8      6.70        60.8      62.0      59.5       6      15     351       3    1013    0.00
    01/30/2015 06:30      54    43.9      6.70        60.6      62.0      59.5       5      13     349       0    1013    0.00
    01/30/2015 06:40      53    43.7      6.70        60.6      62.0      59.5       5      11     350     347    1013    0.00
    01/30/2015 06:50      52    43.4      6.70        60.8      62.0      59.5       6      13     354     354    1012    0.00
    01/30/2015 07:00      53    43.4      6.70        61.0      62.0      59.5       5      11     351       2    1012    0.00
    01/30/2015 07:10      52    43.5      6.70        60.9      62.0      59.5       6      13     352     353    1012    0.00
    01/30/2015 07:20      52    43.5      6.70        61.0      62.0      59.5       6      15     351     324    1013    0.00
    01/30/2015 07:30      53    43.7      6.70        60.9      62.0      59.5       4       9     351     320    1013    0.00
    01/30/2015 07:40      55    44.0      6.70        60.8      62.0      59.5       5      12     350       1    1012    0.00
    01/30/2015 07:50      57    44.8      6.70        60.5      62.0      59.5       5      12     344       8    1012    0.00
    01/30/2015 08:00      56    45.1      6.70        60.3      62.0      59.5       6      11     347     337    1013    0.00
    01/30/2015 08:10      57    44.9      6.70        60.5      62.0      59.5       5      13     340     345    1013    0.00
    01/30/2015 08:20      56    45.0      6.70        60.5      62.0      59.5       2       7     348     339    1013    0.00
    01/30/2015 08:30      55    44.5      6.70        60.8      62.0      59.5       4      10     333       1    1013    0.00
    01/30/2015 08:40      53    44.2      6.70        61.1      62.0      59.5       4       9     339      11    1012    0.00
    01/30/2015 08:50      52    44.1      6.70        61.4      62.0      59.5       4      10     336     329    1012    0.00
    01/30/2015 09:00      53    44.2      6.70        61.7      62.0      59.5       3       8     332     351    1012    0.00
    01/30/2015 09:10      53    44.3      6.70        61.9      62.3      59.5       4       9     332     338    1012    0.00
    01/30/2015 09:20      53    44.5      6.70        62.2      62.5      59.5       4       9     329     350    1012    0.00
    01/30/2015 09:30      52    44.4      6.70        62.6      63.0      59.5       4      14     333     328    1012    0.00
    01/30/2015 09:40      51    44.4      6.70        63.0      63.2      59.5       5      11     327     333    1013    0.00
    01/30/2015 09:50      49    44.4      6.70        63.2      63.4      59.5       4      11     336     339    1012    0.00
    01/30/2015 10:00      48    44.1      6.70        63.5      64.0      59.5       5      11     341     310    1012    0.00
    01/30/2015 10:10      48    44.2      6.70        64.3      64.8      59.5       3       8     345     345    1012    0.00
    01/30/2015 10:20      48    44.2      6.70        64.6      64.8      59.5       4      10     339     351    1012    0.00
    01/30/2015 10:30      46    44.1      6.70        65.0      65.3      59.5       5      10     334     350    1012    0.00
    01/30/2015 10:40      47    43.9      6.70        65.1      65.3      59.5       5      11     336     333    1012    0.00
    01/30/2015 10:50      46    44.0      6.70        65.1      65.4      59.5       5      12     333       1    1012    0.00
    01/30/2015 11:00      45    43.8      6.70        65.2      65.5      59.5       4      10     340     350    1012    0.00